Página principal
METAR-TAF:

METAR-TAF

Aeroportos :

Longyearbyen, Noruega

latitude: 78-15N, longitude: 015-28E, altura: 2 m

Observação actual do tempo

O boletim foi feito há 2 horas e 3 minutos, às 03:50 UTC
Vento 8 kt de sudeste
Temperatura -6°C
Humidade 73%
Pressão 1003 hPa
Visibilidade 10 km ou mais
Poucas nuvensa uma altura de 5000 ft
Nuvens dispersasa uma altura de 12000 ft

METAR: ENSB 150350Z 13008KT 9999 FEW050 SCT120 M06/M10 Q1003 RMK WIND 1400FT VRB02KT

Hora: 06:53 (05:53 UTC)

Previsão

Previsão válida de 15 às 00 UTC a 15 às 24 UTC
Vento 8 kt de es-sudeste
Visibilidade 10 km ou mais
Poucas nuvensa uma altura de 1500 ft
Nuvens fragmentadasa uma altura de 3500 ft
aguaceiros fracos de neve
Temporariamente
de 15 às 03 UTC a 15 às 18 UTC
Nuvens fragmentadasa uma altura de 1200 ft
Temporariamente
de 15 às 06 UTC a 15 às 16 UTC
Vento 15 kt de nordeste

TAF: ENSB 1500/1524 12008KT 9999 -SHSN FEW015 BKN035 TEMPO 1503/1518 BKN012 TEMPO 1506/1516 04015KT

Observações e previsões do tempo de mais de 4000 aeroportos (mensagens METAR e TAF).

As estações disponíveis são os pontos amarelos e vermelhos sobre o mapa.

Mova o rato sobre o mapa para ver o nome da estação.

Depois clique no ponto para visualizar as observações e previsões meteorológicas.

Para alterar o mapa : clique nos botões verdes com uma cruz preta para aumentar o zoom; no botão verde com uma pitada de zoom; ou nas setas verdes para mapas adjacentes.


METAR-TAF: